sensor_id;sensor_type;location;lat;lon;timestamp;P1;durP1;ratioP1;P2;durP2;ratioP2
11131;SDS011;5620;53.570;9.718;2023-11-19T00:02:01;0.60;;;0.60;;
11131;SDS011;5620;53.570;9.718;2023-11-19T00:04:28;1.20;;;1.05;;
11131;SDS011;5620;53.570;9.718;2023-11-19T00:06:53;0.90;;;0.90;;
11131;SDS011;5620;53.570;9.718;2023-11-19T00:09:22;0.73;;;0.73;;
11131;SDS011;5620;53.570;9.718;2023-11-19T00:11:48;1.37;;;0.60;;
11131;SDS011;5620;53.570;9.718;2023-11-19T00:14:13;0.50;;;0.50;;
11131;SDS011;5620;53.570;9.718;2023-11-19T00:16:40;0.77;;;0.70;;
11131;SDS011;5620;53.570;9.718;2023-11-19T00:19:05;0.50;;;0.50;;
11131;SDS011;5620;53.570;9.718;2023-11-19T00:21:31;0.87;;;0.87;;
11131;SDS011;5620;53.570;9.718;2023-11-19T00:23:56;2.50;;;0.53;;
11131;SDS011;5620;53.570;9.718;2023-11-19T00:26:23;0.82;;;0.60;;
11131;SDS011;5620;53.570;9.718;2023-11-19T00:28:49;0.73;;;0.70;;
11131;SDS011;5620;53.570;9.718;2023-11-19T00:31:14;0.93;;;0.60;;
11131;SDS011;5620;53.570;9.718;2023-11-19T00:33:40;0.60;;;0.60;;
11131;SDS011;5620;53.570;9.718;2023-11-19T00:36:06;0.60;;;0.60;;
11131;SDS011;5620;53.570;9.718;2023-11-19T00:38:32;0.80;;;0.80;;
11131;SDS011;5620;53.570;9.718;2023-11-19T00:40:58;1.23;;;0.90;;
11131;SDS011;5620;53.570;9.718;2023-11-19T00:43:25;0.52;;;0.52;;
11131;SDS011;5620;53.570;9.718;2023-11-19T00:45:52;0.53;;;0.53;;
11131;SDS011;5620;53.570;9.718;2023-11-19T00:48:18;0.68;;;0.68;;
11131;SDS011;5620;53.570;9.718;2023-11-19T00:50:43;0.50;;;0.50;;
11131;SDS011;5620;53.570;9.718;2023-11-19T00:53:10;0.30;;;0.30;;
11131;SDS011;5620;53.570;9.718;2023-11-19T00:55:35;0.50;;;0.50;;
11131;SDS011;5620;53.570;9.718;2023-11-19T00:58:02;0.70;;;0.70;;
11131;SDS011;5620;53.570;9.718;2023-11-19T01:00:28;0.77;;;0.77;;
11131;SDS011;5620;53.570;9.718;2023-11-19T01:02:53;2.03;;;0.60;;
11131;SDS011;5620;53.570;9.718;2023-11-19T01:05:20;0.60;;;0.60;;
11131;SDS011;5620;53.570;9.718;2023-11-19T01:07:45;0.73;;;0.73;;
11131;SDS011;5620;53.570;9.718;2023-11-19T01:10:12;0.40;;;0.40;;
11131;SDS011;5620;53.570;9.718;2023-11-19T01:12:38;0.50;;;0.50;;
11131;SDS011;5620;53.570;9.718;2023-11-19T01:15:04;0.60;;;0.60;;
11131;SDS011;5620;53.570;9.718;2023-11-19T01:17:30;0.65;;;0.50;;
11131;SDS011;5620;53.570;9.718;2023-11-19T01:19:57;0.40;;;0.40;;
11131;SDS011;5620;53.570;9.718;2023-11-19T01:22:26;0.50;;;0.40;;
11131;SDS011;5620;53.570;9.718;2023-11-19T01:24:51;0.50;;;0.50;;
11131;SDS011;5620;53.570;9.718;2023-11-19T01:27:17;0.63;;;0.60;;
11131;SDS011;5620;53.570;9.718;2023-11-19T01:29:44;0.53;;;0.40;;
11131;SDS011;5620;53.570;9.718;2023-11-19T01:32:10;0.60;;;0.60;;
11131;SDS011;5620;53.570;9.718;2023-11-19T01:34:35;0.80;;;0.60;;
11131;SDS011;5620;53.570;9.718;2023-11-19T01:37:02;1.53;;;1.43;;
11131;SDS011;5620;53.570;9.718;2023-11-19T01:39:29;0.88;;;0.75;;
11131;SDS011;5620;53.570;9.718;2023-11-19T01:41:56;0.60;;;0.60;;
11131;SDS011;5620;53.570;9.718;2023-11-19T01:44:21;0.50;;;0.50;;
11131;SDS011;5620;53.570;9.718;2023-11-19T01:46:47;0.43;;;0.43;;
11131;SDS011;5620;53.570;9.718;2023-11-19T01:49:14;0.30;;;0.30;;
11131;SDS011;5620;53.570;9.718;2023-11-19T01:51:43;0.75;;;0.60;;
11131;SDS011;5620;53.570;9.718;2023-11-19T01:54:10;0.80;;;0.55;;
11131;SDS011;5620;53.570;9.718;2023-11-19T01:56:37;0.55;;;0.55;;
11131;SDS011;5620;53.570;9.718;2023-11-19T01:59:05;0.40;;;0.40;;
11131;SDS011;5620;53.570;9.718;2023-11-19T02:01:32;0.43;;;0.43;;
11131;SDS011;5620;53.570;9.718;2023-11-19T02:03:57;1.52;;;0.30;;
11131;SDS011;5620;53.570;9.718;2023-11-19T02:06:26;0.40;;;0.40;;
11131;SDS011;5620;53.570;9.718;2023-11-19T02:08:52;0.50;;;0.50;;
11131;SDS011;5620;53.570;9.718;2023-11-19T02:11:19;0.60;;;0.60;;
11131;SDS011;5620;53.570;9.718;2023-11-19T02:13:46;0.40;;;0.40;;
11131;SDS011;5620;53.570;9.718;2023-11-19T02:16:13;0.40;;;0.40;;
11131;SDS011;5620;53.570;9.718;2023-11-19T02:18:38;0.65;;;0.50;;
11131;SDS011;5620;53.570;9.718;2023-11-19T02:21:04;0.40;;;0.40;;
11131;SDS011;5620;53.570;9.718;2023-11-19T02:23:33;0.40;;;0.40;;
11131;SDS011;5620;53.570;9.718;2023-11-19T02:28:52;0.40;;;0.40;;
11131;SDS011;5620;53.570;9.718;2023-11-19T02:31:19;0.50;;;0.50;;
11131;SDS011;5620;53.570;9.718;2023-11-19T02:33:46;0.40;;;0.40;;
11131;SDS011;5620;53.570;9.718;2023-11-19T02:36:13;2.10;;;0.30;;
11131;SDS011;5620;53.570;9.718;2023-11-19T02:38:39;0.40;;;0.40;;
11131;SDS011;5620;53.570;9.718;2023-11-19T02:41:07;0.40;;;0.40;;
11131;SDS011;5620;53.570;9.718;2023-11-19T02:43:34;0.63;;;0.43;;
11131;SDS011;5620;53.570;9.718;2023-11-19T02:46:03;2.13;;;0.40;;
11131;SDS011;5620;53.570;9.718;2023-11-19T02:48:30;0.40;;;0.40;;
11131;SDS011;5620;53.570;9.718;2023-11-19T02:50:57;0.40;;;0.40;;
11131;SDS011;5620;53.570;9.718;2023-11-19T02:53:24;0.40;;;0.40;;
11131;SDS011;5620;53.570;9.718;2023-11-19T02:55:51;0.40;;;0.40;;
11131;SDS011;5620;53.570;9.718;2023-11-19T02:58:18;0.50;;;0.50;;
11131;SDS011;5620;53.570;9.718;2023-11-19T03:00:45;0.40;;;0.40;;
11131;SDS011;5620;53.570;9.718;2023-11-19T03:03:12;0.50;;;0.50;;
11131;SDS011;5620;53.570;9.718;2023-11-19T03:05:39;2.95;;;0.50;;
11131;SDS011;5620;53.570;9.718;2023-11-19T03:08:06;0.60;;;0.60;;
11131;SDS011;5620;53.570;9.718;2023-11-19T03:10:32;1.17;;;0.57;;
11131;SDS011;5620;53.570;9.718;2023-11-19T03:12:58;0.70;;;0.70;;
11131;SDS011;5620;53.570;9.718;2023-11-19T03:15:25;1.85;;;0.70;;
11131;SDS011;5620;53.570;9.718;2023-11-19T03:17:50;1.03;;;0.63;;
11131;SDS011;5620;53.570;9.718;2023-11-19T03:20:17;0.50;;;0.50;;
11131;SDS011;5620;53.570;9.718;2023-11-19T03:22:43;0.45;;;0.40;;
11131;SDS011;5620;53.570;9.718;2023-11-19T03:25:08;0.70;;;0.67;;
11131;SDS011;5620;53.570;9.718;2023-11-19T03:27:35;0.90;;;0.80;;
11131;SDS011;5620;53.570;9.718;2023-11-19T03:30:01;0.63;;;0.50;;
11131;SDS011;5620;53.570;9.718;2023-11-19T03:32:34;0.70;;;0.60;;
11131;SDS011;5620;53.570;9.718;2023-11-19T03:35:00;0.47;;;0.47;;
11131;SDS011;5620;53.570;9.718;2023-11-19T03:37:26;0.40;;;0.40;;
11131;SDS011;5620;53.570;9.718;2023-11-19T03:39:59;0.60;;;0.60;;
11131;SDS011;5620;53.570;9.718;2023-11-19T03:42:25;0.50;;;0.50;;
11131;SDS011;5620;53.570;9.718;2023-11-19T03:44:51;1.25;;;0.70;;
11131;SDS011;5620;53.570;9.718;2023-11-19T03:47:17;0.57;;;0.57;;
11131;SDS011;5620;53.570;9.718;2023-11-19T03:49:53;1.00;;;0.70;;
11131;SDS011;5620;53.570;9.718;2023-11-19T03:52:18;0.95;;;0.70;;
11131;SDS011;5620;53.570;9.718;2023-11-19T03:54:45;0.87;;;0.87;;
11131;SDS011;5620;53.570;9.718;2023-11-19T03:57:11;0.85;;;0.80;;
11131;SDS011;5620;53.570;9.718;2023-11-19T03:59:39;1.42;;;0.80;;
11131;SDS011;5620;53.570;9.718;2023-11-19T04:02:06;0.87;;;0.87;;
11131;SDS011;5620;53.570;9.718;2023-11-19T04:04:32;1.10;;;1.10;;
11131;SDS011;5620;53.570;9.718;2023-11-19T04:06:58;1.02;;;1.00;;
11131;SDS011;5620;53.570;9.718;2023-11-19T04:09:25;1.37;;;1.27;;
11131;SDS011;5620;53.570;9.718;2023-11-19T04:11:50;1.17;;;1.08;;
11131;SDS011;5620;53.570;9.718;2023-11-19T04:14:17;1.60;;;1.40;;
11131;SDS011;5620;53.570;9.718;2023-11-19T04:16:43;1.63;;;1.52;;
11131;SDS011;5620;53.570;9.718;2023-11-19T04:19:09;1.95;;;1.85;;
11131;SDS011;5620;53.570;9.718;2023-11-19T04:21:35;1.73;;;1.63;;
11131;SDS011;5620;53.570;9.718;2023-11-19T04:24:04;2.03;;;1.93;;
11131;SDS011;5620;53.570;9.718;2023-11-19T04:26:30;6.55;;;2.28;;
11131;SDS011;5620;53.570;9.718;2023-11-19T04:28:56;2.03;;;1.93;;
11131;SDS011;5620;53.570;9.718;2023-11-19T04:31:23;3.20;;;2.40;;
11131;SDS011;5620;53.570;9.718;2023-11-19T04:33:53;2.35;;;2.25;;
11131;SDS011;5620;53.570;9.718;2023-11-19T04:36:20;4.63;;;2.77;;
11131;SDS011;5620;53.570;9.718;2023-11-19T04:38:46;2.90;;;2.70;;
11131;SDS011;5620;53.570;9.718;2023-11-19T04:41:11;3.17;;;2.97;;
11131;SDS011;5620;53.570;9.718;2023-11-19T04:43:37;2.63;;;2.53;;
11131;SDS011;5620;53.570;9.718;2023-11-19T04:46:04;5.35;;;3.50;;
11131;SDS011;5620;53.570;9.718;2023-11-19T04:48:31;4.97;;;2.47;;
11131;SDS011;5620;53.570;9.718;2023-11-19T04:51:00;4.18;;;3.78;;
11131;SDS011;5620;53.570;9.718;2023-11-19T04:53:29;3.95;;;3.72;;
11131;SDS011;5620;53.570;9.718;2023-11-19T04:55:57;4.35;;;4.00;;
11131;SDS011;5620;53.570;9.718;2023-11-19T04:58:23;4.95;;;3.70;;
11131;SDS011;5620;53.570;9.718;2023-11-19T05:00:48;4.60;;;4.20;;
11131;SDS011;5620;53.570;9.718;2023-11-19T05:03:14;7.20;;;4.07;;
11131;SDS011;5620;53.570;9.718;2023-11-19T05:05:39;4.78;;;4.32;;
11131;SDS011;5620;53.570;9.718;2023-11-19T05:08:05;4.20;;;3.97;;
11131;SDS011;5620;53.570;9.718;2023-11-19T05:10:32;5.93;;;3.90;;
11131;SDS011;5620;53.570;9.718;2023-11-19T05:12:57;3.80;;;3.50;;
11131;SDS011;5620;53.570;9.718;2023-11-19T05:15:24;7.13;;;3.90;;
11131;SDS011;5620;53.570;9.718;2023-11-19T05:17:50;3.38;;;3.17;;
11131;SDS011;5620;53.570;9.718;2023-11-19T05:20:17;2.97;;;2.78;;
11131;SDS011;5620;53.570;9.718;2023-11-19T05:22:43;3.72;;;2.97;;
11131;SDS011;5620;53.570;9.718;2023-11-19T05:25:08;7.33;;;4.10;;
11131;SDS011;5620;53.570;9.718;2023-11-19T05:27:34;5.28;;;3.95;;
11131;SDS011;5620;53.570;9.718;2023-11-19T05:30:01;5.57;;;3.80;;
11131;SDS011;5620;53.570;9.718;2023-11-19T05:32:29;5.63;;;3.80;;
11131;SDS011;5620;53.570;9.718;2023-11-19T05:34:54;10.73;;;3.00;;
11131;SDS011;5620;53.570;9.718;2023-11-19T05:37:21;3.90;;;3.60;;
11131;SDS011;5620;53.570;9.718;2023-11-19T05:39:47;5.45;;;3.90;;
11131;SDS011;5620;53.570;9.718;2023-11-19T05:42:13;6.78;;;4.32;;
11131;SDS011;5620;53.570;9.718;2023-11-19T05:44:39;3.83;;;3.30;;
11131;SDS011;5620;53.570;9.718;2023-11-19T05:47:06;8.63;;;3.75;;
11131;SDS011;5620;53.570;9.718;2023-11-19T05:49:32;5.03;;;3.28;;
11131;SDS011;5620;53.570;9.718;2023-11-19T05:51:58;3.75;;;2.92;;
11131;SDS011;5620;53.570;9.718;2023-11-19T05:54:25;8.00;;;3.58;;
11131;SDS011;5620;53.570;9.718;2023-11-19T05:56:52;5.55;;;3.55;;
11131;SDS011;5620;53.570;9.718;2023-11-19T05:59:19;5.38;;;3.00;;
11131;SDS011;5620;53.570;9.718;2023-11-19T06:01:46;6.07;;;3.33;;
11131;SDS011;5620;53.570;9.718;2023-11-19T06:04:13;11.05;;;3.22;;
11131;SDS011;5620;53.570;9.718;2023-11-19T06:06:40;5.28;;;3.33;;
11131;SDS011;5620;53.570;9.718;2023-11-19T06:09:07;5.70;;;3.30;;
11131;SDS011;5620;53.570;9.718;2023-11-19T06:11:34;11.00;;;3.33;;
11131;SDS011;5620;53.570;9.718;2023-11-19T06:14:02;5.22;;;2.80;;
11131;SDS011;5620;53.570;9.718;2023-11-19T06:16:28;6.68;;;3.40;;
11131;SDS011;5620;53.570;9.718;2023-11-19T06:18:55;8.07;;;2.92;;
11131;SDS011;5620;53.570;9.718;2023-11-19T06:21:22;10.52;;;3.50;;
11131;SDS011;5620;53.570;9.718;2023-11-19T06:23:49;11.63;;;2.95;;
11131;SDS011;5620;53.570;9.718;2023-11-19T06:26:16;12.88;;;3.35;;
11131;SDS011;5620;53.570;9.718;2023-11-19T06:28:43;4.68;;;2.40;;
11131;SDS011;5620;53.570;9.718;2023-11-19T06:31:09;9.60;;;2.67;;
11131;SDS011;5620;53.570;9.718;2023-11-19T06:33:36;8.80;;;2.80;;
11131;SDS011;5620;53.570;9.718;2023-11-19T06:36:04;10.27;;;3.03;;
11131;SDS011;5620;53.570;9.718;2023-11-19T06:38:30;11.60;;;4.15;;
11131;SDS011;5620;53.570;9.718;2023-11-19T06:40:58;9.23;;;3.05;;
11131;SDS011;5620;53.570;9.718;2023-11-19T06:43:25;15.82;;;3.20;;
11131;SDS011;5620;53.570;9.718;2023-11-19T06:45:51;10.38;;;3.72;;
11131;SDS011;5620;53.570;9.718;2023-11-19T06:48:19;11.65;;;3.88;;
11131;SDS011;5620;53.570;9.718;2023-11-19T06:50:45;11.38;;;3.55;;
11131;SDS011;5620;53.570;9.718;2023-11-19T06:53:12;12.05;;;4.22;;
11131;SDS011;5620;53.570;9.718;2023-11-19T06:55:38;9.32;;;4.22;;
11131;SDS011;5620;53.570;9.718;2023-11-19T06:58:05;16.10;;;3.67;;
11131;SDS011;5620;53.570;9.718;2023-11-19T07:00:32;6.70;;;2.42;;
11131;SDS011;5620;53.570;9.718;2023-11-19T07:02:59;15.30;;;6.93;;
11131;SDS011;5620;53.570;9.718;2023-11-19T07:05:25;24.35;;;9.90;;
11131;SDS011;5620;53.570;9.718;2023-11-19T07:07:51;9.90;;;2.22;;
11131;SDS011;5620;53.570;9.718;2023-11-19T07:10:18;8.45;;;2.45;;
11131;SDS011;5620;53.570;9.718;2023-11-19T07:12:45;9.45;;;2.30;;
11131;SDS011;5620;53.570;9.718;2023-11-19T07:15:12;7.47;;;2.13;;
11131;SDS011;5620;53.570;9.718;2023-11-19T07:17:39;14.32;;;3.70;;
11131;SDS011;5620;53.570;9.718;2023-11-19T07:20:07;12.10;;;3.28;;
11131;SDS011;5620;53.570;9.718;2023-11-19T07:22:34;3.70;;;1.90;;
11131;SDS011;5620;53.570;9.718;2023-11-19T07:25:00;16.30;;;3.25;;
11131;SDS011;5620;53.570;9.718;2023-11-19T07:27:27;21.93;;;9.47;;
11131;SDS011;5620;53.570;9.718;2023-11-19T07:29:54;11.45;;;3.67;;
11131;SDS011;5620;53.570;9.718;2023-11-19T07:32:20;6.82;;;2.17;;
11131;SDS011;5620;53.570;9.718;2023-11-19T07:34:47;16.83;;;2.50;;
11131;SDS011;5620;53.570;9.718;2023-11-19T07:37:14;15.15;;;2.97;;
11131;SDS011;5620;53.570;9.718;2023-11-19T07:39:41;11.20;;;2.30;;
11131;SDS011;5620;53.570;9.718;2023-11-19T07:42:07;15.55;;;2.85;;
11131;SDS011;5620;53.570;9.718;2023-11-19T07:44:34;15.63;;;3.47;;
11131;SDS011;5620;53.570;9.718;2023-11-19T07:47:03;8.65;;;2.05;;
11131;SDS011;5620;53.570;9.718;2023-11-19T07:49:31;8.63;;;1.92;;
11131;SDS011;5620;53.570;9.718;2023-11-19T07:51:58;15.30;;;2.67;;
11131;SDS011;5620;53.570;9.718;2023-11-19T07:54:25;10.95;;;3.13;;
11131;SDS011;5620;53.570;9.718;2023-11-19T07:56:52;8.73;;;1.27;;
11131;SDS011;5620;53.570;9.718;2023-11-19T07:59:18;10.05;;;2.55;;
11131;SDS011;5620;53.570;9.718;2023-11-19T08:01:45;18.98;;;2.85;;
11131;SDS011;5620;53.570;9.718;2023-11-19T08:04:12;13.77;;;2.77;;
11131;SDS011;5620;53.570;9.718;2023-11-19T08:06:38;23.90;;;3.90;;
11131;SDS011;5620;53.570;9.718;2023-11-19T08:09:05;17.40;;;4.35;;
11131;SDS011;5620;53.570;9.718;2023-11-19T08:11:33;10.30;;;2.63;;
11131;SDS011;5620;53.570;9.718;2023-11-19T08:13:58;5.75;;;1.70;;
11131;SDS011;5620;53.570;9.718;2023-11-19T08:16:25;11.13;;;2.37;;
11131;SDS011;5620;53.570;9.718;2023-11-19T08:18:52;9.15;;;2.75;;
11131;SDS011;5620;53.570;9.718;2023-11-19T08:21:17;8.43;;;2.42;;
11131;SDS011;5620;53.570;9.718;2023-11-19T08:23:44;11.85;;;1.60;;
11131;SDS011;5620;53.570;9.718;2023-11-19T08:26:10;37.42;;;13.15;;
11131;SDS011;5620;53.570;9.718;2023-11-19T08:28:38;14.97;;;2.70;;
11131;SDS011;5620;53.570;9.718;2023-11-19T08:31:05;18.42;;;3.97;;
11131;SDS011;5620;53.570;9.718;2023-11-19T08:33:31;8.05;;;2.40;;
11131;SDS011;5620;53.570;9.718;2023-11-19T08:35:58;15.55;;;3.42;;
11131;SDS011;5620;53.570;9.718;2023-11-19T08:38:26;16.20;;;2.92;;
11131;SDS011;5620;53.570;9.718;2023-11-19T08:40:52;17.17;;;3.10;;
11131;SDS011;5620;53.570;9.718;2023-11-19T08:43:17;10.90;;;2.70;;
11131;SDS011;5620;53.570;9.718;2023-11-19T08:45:44;21.77;;;3.70;;
11131;SDS011;5620;53.570;9.718;2023-11-19T08:48:09;29.05;;;4.32;;
11131;SDS011;5620;53.570;9.718;2023-11-19T08:50:35;8.00;;;2.70;;
11131;SDS011;5620;53.570;9.718;2023-11-19T08:53:01;7.53;;;2.00;;
11131;SDS011;5620;53.570;9.718;2023-11-19T08:55:26;18.10;;;3.50;;
11131;SDS011;5620;53.570;9.718;2023-11-19T08:57:52;13.10;;;2.67;;
11131;SDS011;5620;53.570;9.718;2023-11-19T09:00:17;16.95;;;2.97;;
11131;SDS011;5620;53.570;9.718;2023-11-19T09:02:44;13.67;;;2.53;;
11131;SDS011;5620;53.570;9.718;2023-11-19T09:05:10;14.63;;;2.72;;
11131;SDS011;5620;53.570;9.718;2023-11-19T09:07:35;10.20;;;2.17;;
11131;SDS011;5620;53.570;9.718;2023-11-19T09:10:01;21.23;;;3.37;;
11131;SDS011;5620;53.570;9.718;2023-11-19T09:12:26;10.03;;;1.93;;
11131;SDS011;5620;53.570;9.718;2023-11-19T09:14:53;24.83;;;4.50;;
11131;SDS011;5620;53.570;9.718;2023-11-19T09:17:20;10.15;;;1.95;;
11131;SDS011;5620;53.570;9.718;2023-11-19T09:19:46;15.40;;;2.83;;
11131;SDS011;5620;53.570;9.718;2023-11-19T09:22:19;11.02;;;2.60;;
11131;SDS011;5620;53.570;9.718;2023-11-19T09:24:46;12.68;;;2.88;;
11131;SDS011;5620;53.570;9.718;2023-11-19T09:27:11;12.05;;;3.00;;
11131;SDS011;5620;53.570;9.718;2023-11-19T09:29:40;19.40;;;4.50;;
11131;SDS011;5620;53.570;9.718;2023-11-19T09:32:06;17.57;;;3.33;;
11131;SDS011;5620;53.570;9.718;2023-11-19T09:34:33;11.88;;;3.05;;
11131;SDS011;5620;53.570;9.718;2023-11-19T09:37:01;15.15;;;2.28;;
11131;SDS011;5620;53.570;9.718;2023-11-19T09:39:28;14.07;;;3.40;;
11131;SDS011;5620;53.570;9.718;2023-11-19T09:41:54;16.48;;;2.75;;
11131;SDS011;5620;53.570;9.718;2023-11-19T09:44:20;35.43;;;9.33;;
11131;SDS011;5620;53.570;9.718;2023-11-19T09:46:47;25.50;;;4.45;;
11131;SDS011;5620;53.570;9.718;2023-11-19T09:49:12;13.07;;;2.60;;
11131;SDS011;5620;53.570;9.718;2023-11-19T09:51:39;9.45;;;2.20;;
11131;SDS011;5620;53.570;9.718;2023-11-19T09:54:04;15.30;;;3.33;;
11131;SDS011;5620;53.570;9.718;2023-11-19T09:56:31;20.63;;;2.78;;
11131;SDS011;5620;53.570;9.718;2023-11-19T09:59:00;23.63;;;3.80;;
11131;SDS011;5620;53.570;9.718;2023-11-19T10:01:26;16.07;;;2.30;;
11131;SDS011;5620;53.570;9.718;2023-11-19T10:03:55;17.58;;;3.10;;
11131;SDS011;5620;53.570;9.718;2023-11-19T10:06:21;24.38;;;3.75;;
11131;SDS011;5620;53.570;9.718;2023-11-19T10:08:47;23.03;;;3.00;;
11131;SDS011;5620;53.570;9.718;2023-11-19T10:11:14;22.65;;;4.32;;
11131;SDS011;5620;53.570;9.718;2023-11-19T10:13:40;12.82;;;2.72;;
11131;SDS011;5620;53.570;9.718;2023-11-19T10:16:12;16.67;;;2.90;;
11131;SDS011;5620;53.570;9.718;2023-11-19T10:18:42;18.55;;;2.92;;
11131;SDS011;5620;53.570;9.718;2023-11-19T10:21:12;22.50;;;2.95;;
11131;SDS011;5620;53.570;9.718;2023-11-19T10:23:50;12.32;;;2.95;;
11131;SDS011;5620;53.570;9.718;2023-11-19T10:26:17;14.57;;;2.35;;
11131;SDS011;5620;53.570;9.718;2023-11-19T10:28:43;17.13;;;2.65;;
11131;SDS011;5620;53.570;9.718;2023-11-19T10:31:13;25.95;;;3.30;;
11131;SDS011;5620;53.570;9.718;2023-11-19T10:33:39;24.30;;;3.50;;
11131;SDS011;5620;53.570;9.718;2023-11-19T10:36:05;15.45;;;3.10;;
11131;SDS011;5620;53.570;9.718;2023-11-19T10:38:32;17.40;;;3.38;;
11131;SDS011;5620;53.570;9.718;2023-11-19T10:41:01;24.63;;;5.77;;
11131;SDS011;5620;53.570;9.718;2023-11-19T10:43:28;18.52;;;4.38;;
11131;SDS011;5620;53.570;9.718;2023-11-19T10:45:55;14.48;;;2.67;;
11131;SDS011;5620;53.570;9.718;2023-11-19T10:48:40;18.08;;;3.08;;
11131;SDS011;5620;53.570;9.718;2023-11-19T10:51:06;22.88;;;4.40;;
11131;SDS011;5620;53.570;9.718;2023-11-19T10:53:33;14.90;;;3.60;;
11131;SDS011;5620;53.570;9.718;2023-11-19T10:56:04;15.07;;;2.17;;
11131;SDS011;5620;53.570;9.718;2023-11-19T10:58:32;15.23;;;3.30;;
11131;SDS011;5620;53.570;9.718;2023-11-19T11:01:01;11.00;;;2.45;;
11131;SDS011;5620;53.570;9.718;2023-11-19T11:03:29;23.08;;;3.33;;
11131;SDS011;5620;53.570;9.718;2023-11-19T11:06:08;21.60;;;3.50;;
11131;SDS011;5620;53.570;9.718;2023-11-19T11:08:37;13.85;;;3.83;;
11131;SDS011;5620;53.570;9.718;2023-11-19T11:11:05;10.77;;;2.33;;
11131;SDS011;5620;53.570;9.718;2023-11-19T11:13:34;15.80;;;3.55;;
11131;SDS011;5620;53.570;9.718;2023-11-19T11:16:03;12.85;;;2.88;;
11131;SDS011;5620;53.570;9.718;2023-11-19T11:18:31;11.80;;;1.97;;
11131;SDS011;5620;53.570;9.718;2023-11-19T11:21:00;22.67;;;3.40;;
11131;SDS011;5620;53.570;9.718;2023-11-19T11:38:08;14.82;;;3.20;;
11131;SDS011;5620;53.570;9.718;2023-11-19T11:40:35;18.60;;;3.00;;
11131;SDS011;5620;53.570;9.718;2023-11-19T11:43:02;19.08;;;3.30;;
11131;SDS011;5620;53.570;9.718;2023-11-19T11:45:37;23.40;;;4.43;;
11131;SDS011;5620;53.570;9.718;2023-11-19T11:48:17;14.05;;;3.15;;
11131;SDS011;5620;53.570;9.718;2023-11-19T11:50:53;17.23;;;3.30;;
11131;SDS011;5620;53.570;9.718;2023-11-19T11:53:23;9.80;;;2.63;;
11131;SDS011;5620;53.570;9.718;2023-11-19T11:58:20;25.57;;;4.87;;
11131;SDS011;5620;53.570;9.718;2023-11-19T12:00:48;15.40;;;3.22;;
11131;SDS011;5620;53.570;9.718;2023-11-19T12:03:15;15.75;;;3.42;;
11131;SDS011;5620;53.570;9.718;2023-11-19T12:05:46;13.70;;;2.95;;
11131;SDS011;5620;53.570;9.718;2023-11-19T12:08:14;19.02;;;3.28;;
11131;SDS011;5620;53.570;9.718;2023-11-19T12:10:47;20.05;;;2.95;;
11131;SDS011;5620;53.570;9.718;2023-11-19T12:13:21;17.15;;;2.53;;
11131;SDS011;5620;53.570;9.718;2023-11-19T12:18:27;14.57;;;2.72;;
11131;SDS011;5620;53.570;9.718;2023-11-19T12:20:55;12.75;;;2.67;;
11131;SDS011;5620;53.570;9.718;2023-11-19T12:23:25;11.10;;;2.92;;
11131;SDS011;5620;53.570;9.718;2023-11-19T12:25:51;15.75;;;3.35;;
11131;SDS011;5620;53.570;9.718;2023-11-19T12:28:18;16.53;;;2.97;;
11131;SDS011;5620;53.570;9.718;2023-11-19T12:30:43;11.60;;;3.08;;
11131;SDS011;5620;53.570;9.718;2023-11-19T12:33:09;17.05;;;3.65;;
11131;SDS011;5620;53.570;9.718;2023-11-19T12:35:44;10.20;;;2.25;;
11131;SDS011;5620;53.570;9.718;2023-11-19T12:41:03;43.35;;;3.25;;
11131;SDS011;5620;53.570;9.718;2023-11-19T12:43:31;25.50;;;2.78;;
11131;SDS011;5620;53.570;9.718;2023-11-19T12:45:56;22.23;;;3.38;;
11131;SDS011;5620;53.570;9.718;2023-11-19T12:48:22;22.17;;;3.97;;
11131;SDS011;5620;53.570;9.718;2023-11-19T12:53:46;17.92;;;2.97;;
11131;SDS011;5620;53.570;9.718;2023-11-19T12:56:16;11.87;;;1.93;;
11131;SDS011;5620;53.570;9.718;2023-11-19T12:58:43;11.32;;;3.10;;
11131;SDS011;5620;53.570;9.718;2023-11-19T13:01:10;14.45;;;2.67;;
11131;SDS011;5620;53.570;9.718;2023-11-19T13:03:42;19.88;;;3.92;;
11131;SDS011;5620;53.570;9.718;2023-11-19T13:06:09;11.55;;;2.53;;
11131;SDS011;5620;53.570;9.718;2023-11-19T13:08:42;23.83;;;3.43;;
11131;SDS011;5620;53.570;9.718;2023-11-19T13:11:12;17.55;;;2.38;;
11131;SDS011;5620;53.570;9.718;2023-11-19T13:16:26;9.80;;;1.67;;
11131;SDS011;5620;53.570;9.718;2023-11-19T13:18:54;14.48;;;2.65;;
11131;SDS011;5620;53.570;9.718;2023-11-19T13:21:20;25.07;;;4.43;;
11131;SDS011;5620;53.570;9.718;2023-11-19T13:23:47;14.55;;;2.83;;
11131;SDS011;5620;53.570;9.718;2023-11-19T13:26:14;20.33;;;4.22;;
11131;SDS011;5620;53.570;9.718;2023-11-19T13:28:41;21.23;;;4.55;;
11131;SDS011;5620;53.570;9.718;2023-11-19T13:31:08;15.05;;;3.97;;
11131;SDS011;5620;53.570;9.718;2023-11-19T13:33:35;20.97;;;4.53;;
11131;SDS011;5620;53.570;9.718;2023-11-19T13:36:02;18.65;;;5.00;;
11131;SDS011;5620;53.570;9.718;2023-11-19T13:38:29;15.55;;;4.53;;
11131;SDS011;5620;53.570;9.718;2023-11-19T13:40:56;15.43;;;3.78;;
11131;SDS011;5620;53.570;9.718;2023-11-19T13:43:23;12.73;;;2.90;;
11131;SDS011;5620;53.570;9.718;2023-11-19T13:45:50;23.10;;;4.60;;
11131;SDS011;5620;53.570;9.718;2023-11-19T13:48:17;10.13;;;2.75;;
11131;SDS011;5620;53.570;9.718;2023-11-19T13:50:43;21.42;;;3.55;;
11131;SDS011;5620;53.570;9.718;2023-11-19T13:53:11;28.60;;;9.75;;
11131;SDS011;5620;53.570;9.718;2023-11-19T13:55:37;20.17;;;3.60;;
11131;SDS011;5620;53.570;9.718;2023-11-19T13:58:04;19.67;;;3.40;;
11131;SDS011;5620;53.570;9.718;2023-11-19T14:00:30;13.55;;;3.10;;
11131;SDS011;5620;53.570;9.718;2023-11-19T14:02:57;28.10;;;11.38;;
11131;SDS011;5620;53.570;9.718;2023-11-19T14:05:24;7.78;;;2.30;;
11131;SDS011;5620;53.570;9.718;2023-11-19T14:07:49;19.80;;;2.72;;
11131;SDS011;5620;53.570;9.718;2023-11-19T14:10:16;7.88;;;1.88;;
11131;SDS011;5620;53.570;9.718;2023-11-19T14:12:43;9.80;;;2.58;;
11131;SDS011;5620;53.570;9.718;2023-11-19T14:15:11;14.77;;;4.03;;
11131;SDS011;5620;53.570;9.718;2023-11-19T14:17:37;11.48;;;2.00;;
11131;SDS011;5620;53.570;9.718;2023-11-19T14:20:04;19.50;;;3.00;;
11131;SDS011;5620;53.570;9.718;2023-11-19T14:22:31;16.20;;;2.63;;
11131;SDS011;5620;53.570;9.718;2023-11-19T14:24:56;11.60;;;2.47;;
11131;SDS011;5620;53.570;9.718;2023-11-19T14:27:23;14.18;;;3.20;;
11131;SDS011;5620;53.570;9.718;2023-11-19T14:29:49;11.77;;;2.70;;
11131;SDS011;5620;53.570;9.718;2023-11-19T14:32:19;18.00;;;2.50;;
11131;SDS011;5620;53.570;9.718;2023-11-19T14:34:45;5.90;;;2.83;;
11131;SDS011;5620;53.570;9.718;2023-11-19T14:37:12;11.63;;;2.00;;
11131;SDS011;5620;53.570;9.718;2023-11-19T14:39:37;8.85;;;2.42;;
11131;SDS011;5620;53.570;9.718;2023-11-19T14:42:04;10.68;;;2.00;;
11131;SDS011;5620;53.570;9.718;2023-11-19T14:44:31;8.35;;;2.33;;
11131;SDS011;5620;53.570;9.718;2023-11-19T14:46:57;6.60;;;1.60;;
11131;SDS011;5620;53.570;9.718;2023-11-19T14:49:24;5.33;;;1.73;;
11131;SDS011;5620;53.570;9.718;2023-11-19T14:51:51;13.43;;;2.08;;
11131;SDS011;5620;53.570;9.718;2023-11-19T14:54:16;12.20;;;2.22;;
11131;SDS011;5620;53.570;9.718;2023-11-19T14:56:43;13.30;;;2.50;;
11131;SDS011;5620;53.570;9.718;2023-11-19T14:59:10;6.88;;;2.13;;
11131;SDS011;5620;53.570;9.718;2023-11-19T15:01:38;7.72;;;2.05;;
11131;SDS011;5620;53.570;9.718;2023-11-19T15:04:05;20.52;;;3.20;;
11131;SDS011;5620;53.570;9.718;2023-11-19T15:06:31;17.92;;;3.42;;
11131;SDS011;5620;53.570;9.718;2023-11-19T15:08:58;12.25;;;2.65;;
11131;SDS011;5620;53.570;9.718;2023-11-19T15:11:25;10.98;;;2.65;;
11131;SDS011;5620;53.570;9.718;2023-11-19T15:13:51;14.27;;;2.20;;
11131;SDS011;5620;53.570;9.718;2023-11-19T15:16:19;4.97;;;1.45;;
11131;SDS011;5620;53.570;9.718;2023-11-19T15:18:46;11.27;;;2.53;;
11131;SDS011;5620;53.570;9.718;2023-11-19T15:21:12;7.88;;;2.03;;
11131;SDS011;5620;53.570;9.718;2023-11-19T15:23:38;19.00;;;2.95;;
11131;SDS011;5620;53.570;9.718;2023-11-19T15:26:06;11.13;;;2.47;;